sensor_id;sensor_type;location;lat;lon;timestamp;temperature;humidity
17421;DHT22;8828;48.800;9.540;2022-10-22T00:00:57;15.20;99.90
17421;DHT22;8828;48.800;9.540;2022-10-22T00:03:25;15.20;99.90
17421;DHT22;8828;48.800;9.540;2022-10-22T00:05:53;15.20;99.90
17421;DHT22;8828;48.800;9.540;2022-10-22T00:08:21;15.20;99.90
17421;DHT22;8828;48.800;9.540;2022-10-22T00:10:49;15.20;99.90
17421;DHT22;8828;48.800;9.540;2022-10-22T00:13:19;15.10;99.90
17421;DHT22;8828;48.800;9.540;2022-10-22T00:15:48;15.10;99.90
17421;DHT22;8828;48.800;9.540;2022-10-22T00:18:16;15.20;99.90
17421;DHT22;8828;48.800;9.540;2022-10-22T00:20:44;15.10;99.90
17421;DHT22;8828;48.800;9.540;2022-10-22T00:23:12;15.10;99.90
17421;DHT22;8828;48.800;9.540;2022-10-22T00:25:40;15.10;99.90
17421;DHT22;8828;48.800;9.540;2022-10-22T00:28:08;15.10;99.90
17421;DHT22;8828;48.800;9.540;2022-10-22T00:30:37;15.10;99.90
17421;DHT22;8828;48.800;9.540;2022-10-22T00:33:06;15.10;99.90
17421;DHT22;8828;48.800;9.540;2022-10-22T00:35:34;15.00;99.90
17421;DHT22;8828;48.800;9.540;2022-10-22T00:38:02;15.10;99.90
17421;DHT22;8828;48.800;9.540;2022-10-22T00:40:30;15.10;99.90
17421;DHT22;8828;48.800;9.540;2022-10-22T00:42:57;15.00;99.90
17421;DHT22;8828;48.800;9.540;2022-10-22T00:45:27;15.00;99.90
17421;DHT22;8828;48.800;9.540;2022-10-22T00:47:59;15.00;99.90
17421;DHT22;8828;48.800;9.540;2022-10-22T00:50:32;15.00;99.90
17421;DHT22;8828;48.800;9.540;2022-10-22T00:53:02;15.00;99.90
17421;DHT22;8828;48.800;9.540;2022-10-22T00:55:32;15.00;99.90
17421;DHT22;8828;48.800;9.540;2022-10-22T00:58:00;15.00;99.90
17421;DHT22;8828;48.800;9.540;2022-10-22T01:00:29;15.00;99.90
17421;DHT22;8828;48.800;9.540;2022-10-22T01:02:58;15.00;99.90
17421;DHT22;8828;48.800;9.540;2022-10-22T01:05:28;15.00;99.90
17421;DHT22;8828;48.800;9.540;2022-10-22T01:07:58;15.00;99.90
17421;DHT22;8828;48.800;9.540;2022-10-22T01:10:39;15.00;99.90
17421;DHT22;8828;48.800;9.540;2022-10-22T01:13:17;15.00;99.90
17421;DHT22;8828;48.800;9.540;2022-10-22T01:15:53;15.00;99.90
17421;DHT22;8828;48.800;9.540;2022-10-22T01:18:26;15.00;99.90
17421;DHT22;8828;48.800;9.540;2022-10-22T01:21:07;14.90;99.90
17421;DHT22;8828;48.800;9.540;2022-10-22T01:26:57;14.90;99.90
17421;DHT22;8828;48.800;9.540;2022-10-22T01:29:29;14.90;99.90
17421;DHT22;8828;48.800;9.540;2022-10-22T01:32:03;14.90;99.90
17421;DHT22;8828;48.800;9.540;2022-10-22T01:34:32;14.90;99.90
17421;DHT22;8828;48.800;9.540;2022-10-22T01:37:02;14.90;99.90
17421;DHT22;8828;48.800;9.540;2022-10-22T01:39:30;14.90;99.90
17421;DHT22;8828;48.800;9.540;2022-10-22T01:41:58;14.90;99.90
17421;DHT22;8828;48.800;9.540;2022-10-22T01:44:29;14.80;99.90
17421;DHT22;8828;48.800;9.540;2022-10-22T01:47:06;14.80;99.90
17421;DHT22;8828;48.800;9.540;2022-10-22T01:49:52;14.80;99.90
17421;DHT22;8828;48.800;9.540;2022-10-22T01:52:31;14.80;99.90
17421;DHT22;8828;48.800;9.540;2022-10-22T01:55:10;14.70;99.90
17421;DHT22;8828;48.800;9.540;2022-10-22T01:57:45;14.80;99.90
17421;DHT22;8828;48.800;9.540;2022-10-22T02:00:18;14.70;99.90
17421;DHT22;8828;48.800;9.540;2022-10-22T02:02:48;14.70;99.90
17421;DHT22;8828;48.800;9.540;2022-10-22T02:05:22;14.70;99.90
17421;DHT22;8828;48.800;9.540;2022-10-22T02:07:54;14.70;99.90
17421;DHT22;8828;48.800;9.540;2022-10-22T02:10:24;14.70;99.90
17421;DHT22;8828;48.800;9.540;2022-10-22T02:12:53;14.70;99.90
17421;DHT22;8828;48.800;9.540;2022-10-22T02:15:25;14.70;99.90
17421;DHT22;8828;48.800;9.540;2022-10-22T02:17:55;14.70;99.90
17421;DHT22;8828;48.800;9.540;2022-10-22T02:20:26;14.70;99.90
17421;DHT22;8828;48.800;9.540;2022-10-22T02:22:55;14.70;99.90
17421;DHT22;8828;48.800;9.540;2022-10-22T02:25:25;14.60;99.90
17421;DHT22;8828;48.800;9.540;2022-10-22T02:28:00;14.70;99.90
17421;DHT22;8828;48.800;9.540;2022-10-22T02:30:32;14.60;99.90
17421;DHT22;8828;48.800;9.540;2022-10-22T02:33:06;14.70;99.90
17421;DHT22;8828;48.800;9.540;2022-10-22T02:35:35;14.70;99.90
17421;DHT22;8828;48.800;9.540;2022-10-22T02:38:05;14.60;99.90
17421;DHT22;8828;48.800;9.540;2022-10-22T02:40:34;14.60;99.90
17421;DHT22;8828;48.800;9.540;2022-10-22T02:43:03;14.60;99.90
17421;DHT22;8828;48.800;9.540;2022-10-22T02:45:33;14.60;99.90
17421;DHT22;8828;48.800;9.540;2022-10-22T02:48:01;14.60;99.90
17421;DHT22;8828;48.800;9.540;2022-10-22T02:50:29;14.60;99.90
17421;DHT22;8828;48.800;9.540;2022-10-22T02:52:57;14.50;99.90
17421;DHT22;8828;48.800;9.540;2022-10-22T02:55:25;14.50;99.90
17421;DHT22;8828;48.800;9.540;2022-10-22T02:57:53;14.50;99.90
17421;DHT22;8828;48.800;9.540;2022-10-22T03:00:21;14.50;99.90
17421;DHT22;8828;48.800;9.540;2022-10-22T03:02:50;14.50;99.90
17421;DHT22;8828;48.800;9.540;2022-10-22T03:05:18;14.50;99.90
17421;DHT22;8828;48.800;9.540;2022-10-22T03:07:45;14.50;99.90
17421;DHT22;8828;48.800;9.540;2022-10-22T03:10:13;14.50;99.90
17421;DHT22;8828;48.800;9.540;2022-10-22T03:12:41;14.40;99.90
17421;DHT22;8828;48.800;9.540;2022-10-22T03:15:09;14.40;99.90
17421;DHT22;8828;48.800;9.540;2022-10-22T03:17:37;14.40;99.90
17421;DHT22;8828;48.800;9.540;2022-10-22T03:20:08;14.40;99.90
17421;DHT22;8828;48.800;9.540;2022-10-22T03:22:38;14.40;99.90
17421;DHT22;8828;48.800;9.540;2022-10-22T03:25:09;14.50;99.90
17421;DHT22;8828;48.800;9.540;2022-10-22T03:27:39;14.40;99.90
17421;DHT22;8828;48.800;9.540;2022-10-22T03:30:09;14.40;99.90
17421;DHT22;8828;48.800;9.540;2022-10-22T03:32:37;14.40;99.90
17421;DHT22;8828;48.800;9.540;2022-10-22T03:35:07;14.40;99.90
17421;DHT22;8828;48.800;9.540;2022-10-22T03:37:35;14.40;99.90
17421;DHT22;8828;48.800;9.540;2022-10-22T03:40:05;14.50;99.90
17421;DHT22;8828;48.800;9.540;2022-10-22T03:42:34;14.50;99.90
17421;DHT22;8828;48.800;9.540;2022-10-22T03:45:02;14.40;99.90
17421;DHT22;8828;48.800;9.540;2022-10-22T03:47:30;14.40;99.90
17421;DHT22;8828;48.800;9.540;2022-10-22T03:49:58;14.40;99.90
17421;DHT22;8828;48.800;9.540;2022-10-22T03:52:28;14.50;99.90
17421;DHT22;8828;48.800;9.540;2022-10-22T03:54:55;14.50;99.90
17421;DHT22;8828;48.800;9.540;2022-10-22T03:57:24;14.50;99.90
17421;DHT22;8828;48.800;9.540;2022-10-22T03:59:52;14.40;99.90
17421;DHT22;8828;48.800;9.540;2022-10-22T04:02:20;14.40;99.90
17421;DHT22;8828;48.800;9.540;2022-10-22T04:04:48;14.40;99.90
17421;DHT22;8828;48.800;9.540;2022-10-22T04:07:16;14.40;99.90
17421;DHT22;8828;48.800;9.540;2022-10-22T04:09:45;14.40;99.90
17421;DHT22;8828;48.800;9.540;2022-10-22T04:12:13;14.40;99.90
17421;DHT22;8828;48.800;9.540;2022-10-22T04:14:41;14.40;99.90
17421;DHT22;8828;48.800;9.540;2022-10-22T04:17:09;14.40;99.90
17421;DHT22;8828;48.800;9.540;2022-10-22T04:19:37;14.40;99.90
17421;DHT22;8828;48.800;9.540;2022-10-22T04:22:05;14.40;99.90
17421;DHT22;8828;48.800;9.540;2022-10-22T04:24:33;14.40;99.90
17421;DHT22;8828;48.800;9.540;2022-10-22T04:27:02;14.40;99.90
17421;DHT22;8828;48.800;9.540;2022-10-22T04:29:30;14.40;99.90
17421;DHT22;8828;48.800;9.540;2022-10-22T04:31:58;14.40;99.90
17421;DHT22;8828;48.800;9.540;2022-10-22T04:34:26;14.40;99.90
17421;DHT22;8828;48.800;9.540;2022-10-22T04:36:55;14.30;99.90
17421;DHT22;8828;48.800;9.540;2022-10-22T04:39:23;14.30;99.90
17421;DHT22;8828;48.800;9.540;2022-10-22T04:41:51;14.30;99.90
17421;DHT22;8828;48.800;9.540;2022-10-22T04:44:20;14.30;99.90
17421;DHT22;8828;48.800;9.540;2022-10-22T04:46:48;14.30;99.90
17421;DHT22;8828;48.800;9.540;2022-10-22T04:49:16;14.30;99.90
17421;DHT22;8828;48.800;9.540;2022-10-22T04:51:44;14.30;99.90
17421;DHT22;8828;48.800;9.540;2022-10-22T04:54:12;14.30;99.90
17421;DHT22;8828;48.800;9.540;2022-10-22T04:56:41;14.30;99.90
17421;DHT22;8828;48.800;9.540;2022-10-22T04:59:12;14.20;99.90
17421;DHT22;8828;48.800;9.540;2022-10-22T05:01:43;14.20;99.90
17421;DHT22;8828;48.800;9.540;2022-10-22T05:04:12;14.20;99.90
17421;DHT22;8828;48.800;9.540;2022-10-22T05:06:41;14.10;99.90
17421;DHT22;8828;48.800;9.540;2022-10-22T05:09:11;14.10;99.90
17421;DHT22;8828;48.800;9.540;2022-10-22T05:11:41;14.10;99.90
17421;DHT22;8828;48.800;9.540;2022-10-22T05:14:11;14.10;99.90
17421;DHT22;8828;48.800;9.540;2022-10-22T05:16:41;14.00;99.90
17421;DHT22;8828;48.800;9.540;2022-10-22T05:19:18;14.00;99.90
17421;DHT22;8828;48.800;9.540;2022-10-22T05:21:46;14.00;99.90
17421;DHT22;8828;48.800;9.540;2022-10-22T05:24:14;14.00;99.90
17421;DHT22;8828;48.800;9.540;2022-10-22T05:26:42;14.00;99.90
17421;DHT22;8828;48.800;9.540;2022-10-22T05:29:09;14.00;99.90
17421;DHT22;8828;48.800;9.540;2022-10-22T05:31:37;14.00;99.90
17421;DHT22;8828;48.800;9.540;2022-10-22T05:34:08;14.00;99.90
17421;DHT22;8828;48.800;9.540;2022-10-22T05:36:36;13.90;99.90
17421;DHT22;8828;48.800;9.540;2022-10-22T05:39:05;13.90;99.90
17421;DHT22;8828;48.800;9.540;2022-10-22T05:41:33;13.90;99.90
17421;DHT22;8828;48.800;9.540;2022-10-22T05:44:02;13.90;99.90
17421;DHT22;8828;48.800;9.540;2022-10-22T05:46:33;13.80;99.90
17421;DHT22;8828;48.800;9.540;2022-10-22T05:49:03;13.80;99.90
17421;DHT22;8828;48.800;9.540;2022-10-22T05:51:34;13.80;99.90
17421;DHT22;8828;48.800;9.540;2022-10-22T05:54:05;13.80;99.90
17421;DHT22;8828;48.800;9.540;2022-10-22T05:56:33;13.80;99.90
17421;DHT22;8828;48.800;9.540;2022-10-22T05:59:03;13.90;99.90
17421;DHT22;8828;48.800;9.540;2022-10-22T06:01:32;13.80;99.90
17421;DHT22;8828;48.800;9.540;2022-10-22T06:04:03;13.90;99.90
17421;DHT22;8828;48.800;9.540;2022-10-22T06:06:35;13.90;99.90
17421;DHT22;8828;48.800;9.540;2022-10-22T06:09:08;13.90;99.90
17421;DHT22;8828;48.800;9.540;2022-10-22T06:11:38;13.90;99.90
17421;DHT22;8828;48.800;9.540;2022-10-22T06:14:06;13.90;99.90
17421;DHT22;8828;48.800;9.540;2022-10-22T06:16:34;13.90;99.90
17421;DHT22;8828;48.800;9.540;2022-10-22T06:19:02;13.90;99.90
17421;DHT22;8828;48.800;9.540;2022-10-22T06:21:30;14.00;99.90
17421;DHT22;8828;48.800;9.540;2022-10-22T06:24:00;14.00;99.90
17421;DHT22;8828;48.800;9.540;2022-10-22T06:26:28;14.00;99.90
17421;DHT22;8828;48.800;9.540;2022-10-22T06:28:57;14.00;99.90
17421;DHT22;8828;48.800;9.540;2022-10-22T06:31:26;13.90;99.90
17421;DHT22;8828;48.800;9.540;2022-10-22T06:33:55;14.00;99.90
17421;DHT22;8828;48.800;9.540;2022-10-22T06:36:24;14.00;99.90
17421;DHT22;8828;48.800;9.540;2022-10-22T06:38:53;14.00;99.90
17421;DHT22;8828;48.800;9.540;2022-10-22T06:41:23;14.00;99.90
17421;DHT22;8828;48.800;9.540;2022-10-22T06:43:55;14.00;99.90
17421;DHT22;8828;48.800;9.540;2022-10-22T06:46:24;14.10;99.90
17421;DHT22;8828;48.800;9.540;2022-10-22T06:48:54;14.10;99.90
17421;DHT22;8828;48.800;9.540;2022-10-22T06:51:23;14.10;99.90
17421;DHT22;8828;48.800;9.540;2022-10-22T06:53:51;14.10;99.90
17421;DHT22;8828;48.800;9.540;2022-10-22T06:56:22;14.10;99.90
17421;DHT22;8828;48.800;9.540;2022-10-22T06:58:51;14.10;99.90
17421;DHT22;8828;48.800;9.540;2022-10-22T07:01:21;14.10;99.90
17421;DHT22;8828;48.800;9.540;2022-10-22T07:03:50;14.20;99.90
17421;DHT22;8828;48.800;9.540;2022-10-22T07:06:19;14.30;99.90
17421;DHT22;8828;48.800;9.540;2022-10-22T07:08:48;14.30;99.90
17421;DHT22;8828;48.800;9.540;2022-10-22T07:11:17;14.30;99.90
17421;DHT22;8828;48.800;9.540;2022-10-22T07:13:48;14.40;99.90
17421;DHT22;8828;48.800;9.540;2022-10-22T07:16:17;14.40;99.90
17421;DHT22;8828;48.800;9.540;2022-10-22T07:18:46;14.40;99.90
17421;DHT22;8828;48.800;9.540;2022-10-22T07:21:15;14.50;99.90
17421;DHT22;8828;48.800;9.540;2022-10-22T07:23:43;14.50;99.90
17421;DHT22;8828;48.800;9.540;2022-10-22T07:26:13;14.50;99.90
17421;DHT22;8828;48.800;9.540;2022-10-22T07:28:41;14.50;99.90
17421;DHT22;8828;48.800;9.540;2022-10-22T07:31:15;14.50;99.90
17421;DHT22;8828;48.800;9.540;2022-10-22T07:33:44;14.50;99.90
17421;DHT22;8828;48.800;9.540;2022-10-22T07:36:13;14.50;99.90
17421;DHT22;8828;48.800;9.540;2022-10-22T07:38:43;14.60;99.90
17421;DHT22;8828;48.800;9.540;2022-10-22T07:41:12;14.60;99.90
17421;DHT22;8828;48.800;9.540;2022-10-22T07:43:41;14.60;99.90
17421;DHT22;8828;48.800;9.540;2022-10-22T07:46:10;14.60;99.90
17421;DHT22;8828;48.800;9.540;2022-10-22T07:48:38;14.70;99.90
17421;DHT22;8828;48.800;9.540;2022-10-22T07:51:07;14.70;99.90
17421;DHT22;8828;48.800;9.540;2022-10-22T07:53:35;14.80;99.90
17421;DHT22;8828;48.800;9.540;2022-10-22T07:56:03;14.90;99.90
17421;DHT22;8828;48.800;9.540;2022-10-22T07:58:31;14.90;99.90
17421;DHT22;8828;48.800;9.540;2022-10-22T08:01:00;15.00;99.90
17421;DHT22;8828;48.800;9.540;2022-10-22T08:03:30;15.10;99.90
17421;DHT22;8828;48.800;9.540;2022-10-22T08:05:58;15.30;99.90
17421;DHT22;8828;48.800;9.540;2022-10-22T08:08:26;15.60;99.90
17421;DHT22;8828;48.800;9.540;2022-10-22T08:10:59;15.70;99.90
17421;DHT22;8828;48.800;9.540;2022-10-22T08:13:27;15.80;99.90
17421;DHT22;8828;48.800;9.540;2022-10-22T08:15:56;16.00;99.90
17421;DHT22;8828;48.800;9.540;2022-10-22T08:18:25;16.10;99.90
17421;DHT22;8828;48.800;9.540;2022-10-22T08:20:54;16.20;99.90
17421;DHT22;8828;48.800;9.540;2022-10-22T08:23:22;16.40;99.90
17421;DHT22;8828;48.800;9.540;2022-10-22T08:25:55;16.70;99.90
17421;DHT22;8828;48.800;9.540;2022-10-22T08:28:23;16.70;99.90
17421;DHT22;8828;48.800;9.540;2022-10-22T08:30:51;17.00;99.90
17421;DHT22;8828;48.800;9.540;2022-10-22T08:33:19;17.40;99.90
17421;DHT22;8828;48.800;9.540;2022-10-22T08:35:47;17.60;99.90
17421;DHT22;8828;48.800;9.540;2022-10-22T08:38:18;17.60;99.90
17421;DHT22;8828;48.800;9.540;2022-10-22T08:40:48;17.50;99.90
17421;DHT22;8828;48.800;9.540;2022-10-22T08:46:22;17.30;99.90
17421;DHT22;8828;48.800;9.540;2022-10-22T08:48:53;17.40;99.90
17421;DHT22;8828;48.800;9.540;2022-10-22T08:51:24;18.50;99.90
17421;DHT22;8828;48.800;9.540;2022-10-22T08:54:06;20.70;99.90
17421;DHT22;8828;48.800;9.540;2022-10-22T08:56:36;23.10;99.90
17421;DHT22;8828;48.800;9.540;2022-10-22T08:59:09;25.30;99.90
17421;DHT22;8828;48.800;9.540;2022-10-22T09:01:42;27.30;99.90
17421;DHT22;8828;48.800;9.540;2022-10-22T09:04:18;28.90;99.90
17421;DHT22;8828;48.800;9.540;2022-10-22T09:06:52;29.90;99.90
17421;DHT22;8828;48.800;9.540;2022-10-22T09:09:26;30.60;98.90
17421;DHT22;8828;48.800;9.540;2022-10-22T09:11:56;31.20;94.90
17421;DHT22;8828;48.800;9.540;2022-10-22T09:14:25;32.20;92.20
17421;DHT22;8828;48.800;9.540;2022-10-22T09:17:09;33.00;87.60
17421;DHT22;8828;48.800;9.540;2022-10-22T09:19:46;34.10;84.40
17421;DHT22;8828;48.800;9.540;2022-10-22T09:22:26;35.10;78.10
17421;DHT22;8828;48.800;9.540;2022-10-22T09:25:08;35.90;72.60
17421;DHT22;8828;48.800;9.540;2022-10-22T09:27:37;36.50;69.20
17421;DHT22;8828;48.800;9.540;2022-10-22T09:30:12;37.00;67.00
17421;DHT22;8828;48.800;9.540;2022-10-22T09:32:41;37.50;64.50
17421;DHT22;8828;48.800;9.540;2022-10-22T09:35:11;38.00;62.10
17421;DHT22;8828;48.800;9.540;2022-10-22T09:37:47;38.40;60.00
17421;DHT22;8828;48.800;9.540;2022-10-22T09:40:17;38.20;58.80
17421;DHT22;8828;48.800;9.540;2022-10-22T09:42:45;37.30;58.90
17421;DHT22;8828;48.800;9.540;2022-10-22T09:45:24;37.20;58.70
17421;DHT22;8828;48.800;9.540;2022-10-22T09:48:08;37.60;58.20
17421;DHT22;8828;48.800;9.540;2022-10-22T09:50:41;38.20;57.80
17421;DHT22;8828;48.800;9.540;2022-10-22T09:53:17;38.80;56.90
17421;DHT22;8828;48.800;9.540;2022-10-22T09:55:52;39.30;55.40
17421;DHT22;8828;48.800;9.540;2022-10-22T09:58:25;39.80;54.40
17421;DHT22;8828;48.800;9.540;2022-10-22T10:00:57;39.90;53.40
17421;DHT22;8828;48.800;9.540;2022-10-22T10:03:30;40.20;52.50
17421;DHT22;8828;48.800;9.540;2022-10-22T10:06:00;40.20;52.00
17421;DHT22;8828;48.800;9.540;2022-10-22T10:08:32;40.50;51.90
17421;DHT22;8828;48.800;9.540;2022-10-22T10:11:06;40.80;51.20
17421;DHT22;8828;48.800;9.540;2022-10-22T10:13:42;40.70;50.40
17421;DHT22;8828;48.800;9.540;2022-10-22T10:16:26;40.90;50.90
17421;DHT22;8828;48.800;9.540;2022-10-22T10:19:17;40.70;49.80
17421;DHT22;8828;48.800;9.540;2022-10-22T10:21:56;40.60;50.50
17421;DHT22;8828;48.800;9.540;2022-10-22T10:24:32;41.00;49.70
17421;DHT22;8828;48.800;9.540;2022-10-22T10:27:10;40.90;49.70
17421;DHT22;8828;48.800;9.540;2022-10-22T10:29:48;41.00;49.80
17421;DHT22;8828;48.800;9.540;2022-10-22T10:32:28;41.20;49.30
17421;DHT22;8828;48.800;9.540;2022-10-22T10:35:05;41.50;49.40
17421;DHT22;8828;48.800;9.540;2022-10-22T10:37:40;41.80;48.50
17421;DHT22;8828;48.800;9.540;2022-10-22T10:40:27;42.00;48.50
17421;DHT22;8828;48.800;9.540;2022-10-22T10:43:03;41.90;47.90
17421;DHT22;8828;48.800;9.540;2022-10-22T10:45:39;42.00;47.80
17421;DHT22;8828;48.800;9.540;2022-10-22T10:48:29;42.00;47.50
17421;DHT22;8828;48.800;9.540;2022-10-22T10:51:05;41.90;47.30
17421;DHT22;8828;48.800;9.540;2022-10-22T10:53:46;41.90;47.50
17421;DHT22;8828;48.800;9.540;2022-10-22T10:56:32;42.10;47.30
17421;DHT22;8828;48.800;9.540;2022-10-22T10:59:15;42.30;47.20
17421;DHT22;8828;48.800;9.540;2022-10-22T11:01:55;42.40;47.00
17421;DHT22;8828;48.800;9.540;2022-10-22T11:04:46;42.50;46.90
17421;DHT22;8828;48.800;9.540;2022-10-22T11:07:21;42.10;46.70
17421;DHT22;8828;48.800;9.540;2022-10-22T11:10:07;40.70;47.60
17421;DHT22;8828;48.800;9.540;2022-10-22T11:12:40;39.20;49.20
17421;DHT22;8828;48.800;9.540;2022-10-22T11:15:22;38.90;49.50
17421;DHT22;8828;48.800;9.540;2022-10-22T11:17:54;39.30;49.50
17421;DHT22;8828;48.800;9.540;2022-10-22T11:20:27;39.70;49.40
17421;DHT22;8828;48.800;9.540;2022-10-22T11:23:01;38.90;49.50
17421;DHT22;8828;48.800;9.540;2022-10-22T11:25:49;37.30;50.60
17421;DHT22;8828;48.800;9.540;2022-10-22T11:28:22;36.20;51.70
17421;DHT22;8828;48.800;9.540;2022-10-22T11:30:58;35.20;52.60
17421;DHT22;8828;48.800;9.540;2022-10-22T11:33:33;34.10;53.50
17421;DHT22;8828;48.800;9.540;2022-10-22T11:36:04;34.60;53.00
17421;DHT22;8828;48.800;9.540;2022-10-22T11:38:33;35.50;52.30
17421;DHT22;8828;48.800;9.540;2022-10-22T11:41:06;36.20;51.90
17421;DHT22;8828;48.800;9.540;2022-10-22T11:43:51;36.60;51.10
17421;DHT22;8828;48.800;9.540;2022-10-22T11:46:39;36.70;51.60
17421;DHT22;8828;48.800;9.540;2022-10-22T11:49:23;36.60;51.50
17421;DHT22;8828;48.800;9.540;2022-10-22T11:52:05;36.30;51.40
17421;DHT22;8828;48.800;9.540;2022-10-22T11:54:48;35.90;51.80
17421;DHT22;8828;48.800;9.540;2022-10-22T11:57:21;35.60;51.90
17421;DHT22;8828;48.800;9.540;2022-10-22T11:59:55;35.40;52.70
17421;DHT22;8828;48.800;9.540;2022-10-22T12:02:41;35.20;52.30
17421;DHT22;8828;48.800;9.540;2022-10-22T12:08:24;33.90;53.20
17421;DHT22;8828;48.800;9.540;2022-10-22T12:11:13;32.40;55.40
17421;DHT22;8828;48.800;9.540;2022-10-22T12:14:15;31.00;57.00
17421;DHT22;8828;48.800;9.540;2022-10-22T12:16:47;29.80;58.20
17421;DHT22;8828;48.800;9.540;2022-10-22T12:19:30;28.80;61.00
17421;DHT22;8828;48.800;9.540;2022-10-22T12:22:05;27.80;63.50
17421;DHT22;8828;48.800;9.540;2022-10-22T12:24:40;27.50;65.90
17421;DHT22;8828;48.800;9.540;2022-10-22T12:27:17;28.20;64.20
17421;DHT22;8828;48.800;9.540;2022-10-22T12:29:52;29.00;62.70
17421;DHT22;8828;48.800;9.540;2022-10-22T12:32:20;29.70;60.70
17421;DHT22;8828;48.800;9.540;2022-10-22T12:34:51;30.00;60.50
17421;DHT22;8828;48.800;9.540;2022-10-22T12:37:19;30.20;62.50
17421;DHT22;8828;48.800;9.540;2022-10-22T12:39:47;30.20;62.20
17421;DHT22;8828;48.800;9.540;2022-10-22T12:42:16;30.20;62.40
17421;DHT22;8828;48.800;9.540;2022-10-22T12:44:44;30.10;60.60
17421;DHT22;8828;48.800;9.540;2022-10-22T12:47:14;30.20;60.60
17421;DHT22;8828;48.800;9.540;2022-10-22T12:49:46;30.20;59.90
17421;DHT22;8828;48.800;9.540;2022-10-22T12:52:19;30.20;59.90
17421;DHT22;8828;48.800;9.540;2022-10-22T12:54:49;30.20;59.80
17421;DHT22;8828;48.800;9.540;2022-10-22T12:57:19;30.00;60.00
17421;DHT22;8828;48.800;9.540;2022-10-22T12:59:49;29.70;59.20
17421;DHT22;8828;48.800;9.540;2022-10-22T13:02:20;29.00;60.60
17421;DHT22;8828;48.800;9.540;2022-10-22T13:05:16;28.50;60.50
17421;DHT22;8828;48.800;9.540;2022-10-22T13:07:47;27.60;61.40
17421;DHT22;8828;48.800;9.540;2022-10-22T13:10:19;26.90;63.60
17421;DHT22;8828;48.800;9.540;2022-10-22T13:12:54;26.20;64.80
17421;DHT22;8828;48.800;9.540;2022-10-22T13:15:32;25.60;66.70
17421;DHT22;8828;48.800;9.540;2022-10-22T13:18:02;25.00;68.70
17421;DHT22;8828;48.800;9.540;2022-10-22T13:20:31;24.50;71.70
17421;DHT22;8828;48.800;9.540;2022-10-22T13:23:04;24.00;74.00
17421;DHT22;8828;48.800;9.540;2022-10-22T13:25:33;23.70;76.10
17421;DHT22;8828;48.800;9.540;2022-10-22T13:28:15;23.70;77.10
17421;DHT22;8828;48.800;9.540;2022-10-22T13:30:52;23.90;77.80
17421;DHT22;8828;48.800;9.540;2022-10-22T13:33:23;24.10;77.80
17421;DHT22;8828;48.800;9.540;2022-10-22T13:35:52;24.20;76.90
17421;DHT22;8828;48.800;9.540;2022-10-22T13:38:24;24.40;75.40
17421;DHT22;8828;48.800;9.540;2022-10-22T13:40:53;24.50;75.30
17421;DHT22;8828;48.800;9.540;2022-10-22T13:43:21;24.60;75.20
17421;DHT22;8828;48.800;9.540;2022-10-22T13:45:53;24.80;75.30
17421;DHT22;8828;48.800;9.540;2022-10-22T13:48:23;24.90;73.60
17421;DHT22;8828;48.800;9.540;2022-10-22T13:50:52;25.00;72.90
17421;DHT22;8828;48.800;9.540;2022-10-22T13:53:24;25.10;72.00
17421;DHT22;8828;48.800;9.540;2022-10-22T13:55:52;25.10;70.90
17421;DHT22;8828;48.800;9.540;2022-10-22T13:58:22;25.10;68.10
17421;DHT22;8828;48.800;9.540;2022-10-22T14:00:52;25.10;67.60
17421;DHT22;8828;48.800;9.540;2022-10-22T14:03:23;25.10;66.80
17421;DHT22;8828;48.800;9.540;2022-10-22T14:05:52;25.00;66.20
17421;DHT22;8828;48.800;9.540;2022-10-22T14:08:22;24.90;66.90
17421;DHT22;8828;48.800;9.540;2022-10-22T14:10:51;24.80;66.00
17421;DHT22;8828;48.800;9.540;2022-10-22T14:13:20;24.70;67.30
17421;DHT22;8828;48.800;9.540;2022-10-22T14:15:49;24.60;69.50
17421;DHT22;8828;48.800;9.540;2022-10-22T14:18:20;24.50;68.70
17421;DHT22;8828;48.800;9.540;2022-10-22T14:20:52;24.30;67.90
17421;DHT22;8828;48.800;9.540;2022-10-22T14:23:24;24.10;69.10
17421;DHT22;8828;48.800;9.540;2022-10-22T14:25:53;24.00;70.10
17421;DHT22;8828;48.800;9.540;2022-10-22T14:28:22;23.70;71.70
17421;DHT22;8828;48.800;9.540;2022-10-22T14:30:50;23.50;73.60
17421;DHT22;8828;48.800;9.540;2022-10-22T14:33:20;23.30;73.50
17421;DHT22;8828;48.800;9.540;2022-10-22T14:35:56;23.10;75.00
17421;DHT22;8828;48.800;9.540;2022-10-22T14:38:25;23.00;77.40
17421;DHT22;8828;48.800;9.540;2022-10-22T14:40:54;22.80;77.90
17421;DHT22;8828;48.800;9.540;2022-10-22T14:43:24;22.60;78.80
17421;DHT22;8828;48.800;9.540;2022-10-22T14:45:53;22.50;80.10
17421;DHT22;8828;48.800;9.540;2022-10-22T14:48:21;22.40;80.60
17421;DHT22;8828;48.800;9.540;2022-10-22T14:50:49;22.30;80.80
17421;DHT22;8828;48.800;9.540;2022-10-22T14:53:17;22.20;81.10
17421;DHT22;8828;48.800;9.540;2022-10-22T14:55:46;22.20;81.30
17421;DHT22;8828;48.800;9.540;2022-10-22T14:58:17;22.00;82.10
17421;DHT22;8828;48.800;9.540;2022-10-22T15:00:44;21.90;81.50
17421;DHT22;8828;48.800;9.540;2022-10-22T15:03:12;21.80;81.20
17421;DHT22;8828;48.800;9.540;2022-10-22T15:05:41;21.70;84.30
17421;DHT22;8828;48.800;9.540;2022-10-22T15:08:10;21.60;84.70
17421;DHT22;8828;48.800;9.540;2022-10-22T15:10:39;21.50;85.50
17421;DHT22;8828;48.800;9.540;2022-10-22T15:13:08;21.40;85.70
17421;DHT22;8828;48.800;9.540;2022-10-22T15:15:39;21.30;85.80
17421;DHT22;8828;48.800;9.540;2022-10-22T15:18:07;21.20;86.20
17421;DHT22;8828;48.800;9.540;2022-10-22T15:20:35;21.10;87.50
17421;DHT22;8828;48.800;9.540;2022-10-22T15:23:03;21.00;87.20
17421;DHT22;8828;48.800;9.540;2022-10-22T15:25:30;21.00;88.20
17421;DHT22;8828;48.800;9.540;2022-10-22T15:27:58;20.80;89.00
17421;DHT22;8828;48.800;9.540;2022-10-22T15:30:36;20.70;89.40
17421;DHT22;8828;48.800;9.540;2022-10-22T15:33:04;20.50;89.30
17421;DHT22;8828;48.800;9.540;2022-10-22T15:35:32;20.40;89.50
17421;DHT22;8828;48.800;9.540;2022-10-22T15:38:00;20.20;90.00
17421;DHT22;8828;48.800;9.540;2022-10-22T15:40:28;20.10;90.50
17421;DHT22;8828;48.800;9.540;2022-10-22T15:42:56;19.90;90.90
17421;DHT22;8828;48.800;9.540;2022-10-22T15:45:24;19.80;91.30
17421;DHT22;8828;48.800;9.540;2022-10-22T15:47:53;19.70;91.90
17421;DHT22;8828;48.800;9.540;2022-10-22T15:50:21;19.60;92.20
17421;DHT22;8828;48.800;9.540;2022-10-22T15:52:49;19.60;92.50
17421;DHT22;8828;48.800;9.540;2022-10-22T15:55:17;19.50;92.80
17421;DHT22;8828;48.800;9.540;2022-10-22T15:57:45;19.40;93.10
17421;DHT22;8828;48.800;9.540;2022-10-22T16:00:15;19.30;93.40
17421;DHT22;8828;48.800;9.540;2022-10-22T16:02:43;19.20;94.00
17421;DHT22;8828;48.800;9.540;2022-10-22T16:05:12;19.20;94.60
17421;DHT22;8828;48.800;9.540;2022-10-22T16:07:40;19.00;95.10
17421;DHT22;8828;48.800;9.540;2022-10-22T16:10:09;19.00;95.70
17421;DHT22;8828;48.800;9.540;2022-10-22T16:12:38;18.90;96.40
17421;DHT22;8828;48.800;9.540;2022-10-22T16:15:08;18.80;97.00
17421;DHT22;8828;48.800;9.540;2022-10-22T16:17:36;18.70;97.80
17421;DHT22;8828;48.800;9.540;2022-10-22T16:20:05;18.60;98.60